createdAt,value
2023-05-13T00:00:11.506Z,50.866806
2023-05-13T00:01:10.070Z,50.866833
2023-05-13T00:02:12.755Z,50.866806
2023-05-13T00:03:10.293Z,50.866810
2023-05-13T00:04:10.257Z,50.866825
2023-05-13T00:05:11.679Z,50.866787
2023-05-13T00:06:09.822Z,50.866806
2023-05-13T00:07:09.778Z,50.866810
2023-05-13T00:08:10.664Z,50.866768
2023-05-13T00:09:09.758Z,50.866749
2023-05-13T00:10:09.784Z,50.866764
2023-05-13T00:11:09.740Z,50.866795
2023-05-13T00:12:09.758Z,50.866776
2023-05-13T00:13:09.807Z,50.866768
2023-05-13T00:14:09.751Z,50.866791
2023-05-13T00:15:09.721Z,50.866806
2023-05-13T00:16:09.709Z,50.866802
2023-05-13T00:17:09.725Z,50.866749
2023-05-13T00:18:11.646Z,50.866760
2023-05-13T00:19:09.759Z,50.866787
2023-05-13T00:20:09.684Z,50.866787
2023-05-13T00:24:00.063Z,50.866608
2023-05-13T00:25:00.031Z,50.866600
2023-05-13T00:26:00.042Z,50.866653
2023-05-13T00:27:00.778Z,50.866695
2023-05-13T00:28:00.059Z,50.866646
2023-05-13T00:29:00.026Z,50.866570
2023-05-13T00:30:01.802Z,50.866402
2023-05-13T00:31:00.310Z,50.866398
2023-05-13T00:32:00.018Z,50.866371
2023-05-13T00:33:00.042Z,50.866425
2023-05-13T00:33:59.956Z,50.866520
2023-05-13T00:34:59.953Z,50.866707
2023-05-13T00:35:59.957Z,50.866798
2023-05-13T00:36:59.942Z,50.866913
2023-05-13T00:37:59.938Z,50.866776
2023-05-13T00:38:59.936Z,50.866646
2023-05-13T00:39:59.913Z,50.866573
2023-05-13T00:40:59.898Z,50.866554
2023-05-13T00:41:59.942Z,50.866573
2023-05-13T00:42:59.897Z,50.866535
2023-05-13T00:43:59.874Z,50.866455
2023-05-13T00:44:59.868Z,50.866554
2023-05-13T00:45:59.900Z,50.866562
2023-05-13T00:46:59.870Z,50.866608
2023-05-13T00:47:59.903Z,50.866661
2023-05-13T00:48:59.871Z,50.866722
2023-05-13T00:49:59.843Z,50.866627
2023-05-13T00:50:59.817Z,50.866600
2023-05-13T00:51:59.809Z,50.866650
2023-05-13T00:53:00.323Z,50.866684
2023-05-13T00:54:00.816Z,50.866554
2023-05-13T00:54:59.820Z,50.866596
2023-05-13T00:55:59.808Z,50.866543
2023-05-13T00:56:59.776Z,50.866653
2023-05-13T00:57:59.768Z,50.866608
2023-05-13T00:59:02.408Z,50.866577
2023-05-13T00:59:59.748Z,50.866734
2023-05-13T01:00:59.809Z,50.866688
2023-05-13T01:01:59.769Z,50.866737
2023-05-13T01:02:59.838Z,50.866665
2023-05-13T01:03:59.755Z,50.866802
2023-05-13T01:04:59.716Z,50.866680
2023-05-13T01:05:59.745Z,50.866764
2023-05-13T01:06:59.707Z,50.866840
2023-05-13T01:07:59.696Z,50.866810
2023-05-13T01:08:59.703Z,50.866817
2023-05-13T01:09:59.693Z,50.866867
2023-05-13T01:11:00.319Z,50.866859
2023-05-13T01:11:59.733Z,50.866684
2023-05-13T01:12:59.649Z,50.866695
2023-05-13T01:13:59.641Z,50.866699
2023-05-13T01:14:59.624Z,50.866795
2023-05-13T01:15:59.613Z,50.866795
2023-05-13T01:16:59.668Z,50.866779
2023-05-13T01:17:59.651Z,50.866768
2023-05-13T01:18:59.695Z,50.866776
2023-05-13T01:19:59.601Z,50.866753
2023-05-13T01:20:59.592Z,50.866779
2023-05-13T01:21:59.574Z,50.866795
2023-05-13T01:22:59.573Z,50.866737
2023-05-13T01:23:59.630Z,50.866734
2023-05-13T01:24:59.576Z,50.866699
2023-05-13T01:25:59.560Z,50.866699
2023-05-13T01:26:59.563Z,50.866684
2023-05-13T01:27:59.538Z,50.866699
2023-05-13T01:28:59.536Z,50.866756
2023-05-13T01:30:00.391Z,50.866814
2023-05-13T01:30:59.566Z,50.866859
2023-05-13T01:31:59.574Z,50.866798
2023-05-13T01:32:59.513Z,50.866833
2023-05-13T01:33:59.479Z,50.866814
2023-05-13T01:34:59.924Z,50.866760
2023-05-13T01:35:59.488Z,50.866745
2023-05-13T01:36:59.491Z,50.866703
2023-05-13T01:38:01.480Z,50.866737
2023-05-13T01:39:00.499Z,50.866688
2023-05-13T01:39:59.445Z,50.866699
2023-05-13T01:40:59.465Z,50.866745
2023-05-13T01:41:59.457Z,50.866684
2023-05-13T01:42:59.412Z,50.866730
2023-05-13T01:43:59.401Z,50.866840
2023-05-13T01:44:59.401Z,50.866802
2023-05-13T01:46:00.497Z,50.866810
2023-05-13T01:47:01.315Z,50.866749
2023-05-13T01:48:00.911Z,50.866753
2023-05-13T01:48:59.394Z,50.866753
2023-05-13T01:49:59.365Z,50.866852
2023-05-13T01:50:59.368Z,50.866783
2023-05-13T01:51:59.348Z,50.866821
2023-05-13T01:52:59.349Z,50.866821
2023-05-13T01:53:59.357Z,50.866741
2023-05-13T01:54:59.325Z,50.866764
2023-05-13T01:55:59.312Z,50.866787
2023-05-13T01:56:59.301Z,50.866806
2023-05-13T01:58:00.305Z,50.866760
2023-05-13T01:58:59.284Z,50.866764
2023-05-13T01:59:59.293Z,50.866692
2023-05-13T02:00:59.302Z,50.866749
2023-05-13T02:01:59.278Z,50.866673
2023-05-13T02:02:59.330Z,50.866650
2023-05-13T02:03:59.475Z,50.866734
2023-05-13T02:04:59.251Z,50.866798
2023-05-13T02:06:00.923Z,50.866779
2023-05-13T02:06:59.237Z,50.866844
2023-05-13T02:07:59.239Z,50.866920
2023-05-13T02:08:59.212Z,50.867088
2023-05-13T02:09:59.220Z,50.866882
2023-05-13T02:10:59.204Z,50.866772
2023-05-13T02:11:59.188Z,50.866844
2023-05-13T02:12:59.183Z,50.866722
2023-05-13T02:13:59.169Z,50.866837
2023-05-13T02:14:59.181Z,50.866791
2023-05-13T02:15:59.189Z,50.866833
2023-05-13T02:16:59.196Z,50.866795
2023-05-13T02:17:59.847Z,50.866779
2023-05-13T02:18:59.175Z,50.866730
2023-05-13T02:20:00.164Z,50.866917
2023-05-13T02:20:59.157Z,50.866772
2023-05-13T02:21:59.095Z,50.866737
2023-05-13T02:22:59.112Z,50.866592
2023-05-13T02:23:59.166Z,50.866699
2023-05-13T02:24:59.089Z,50.866718
2023-05-13T02:25:59.098Z,50.866795
2023-05-13T02:26:59.062Z,50.866856
2023-05-13T02:27:59.063Z,50.866798
2023-05-13T02:28:59.074Z,50.866737
2023-05-13T02:29:59.074Z,50.866745
2023-05-13T02:30:59.051Z,50.866791
2023-05-13T02:31:59.055Z,50.866795
2023-05-13T02:32:59.088Z,50.866760
2023-05-13T02:33:59.008Z,50.866776
2023-05-13T02:34:59.028Z,50.866787
2023-05-13T02:35:59.011Z,50.866764
2023-05-13T02:36:58.993Z,50.866795
2023-05-13T02:37:59.005Z,50.866810
2023-05-13T02:38:58.983Z,50.866795
2023-05-13T02:39:59.005Z,50.866821
2023-05-13T02:40:58.972Z,50.866768
2023-05-13T02:41:58.959Z,50.866753
2023-05-13T02:42:58.964Z,50.866772
2023-05-13T02:43:58.967Z,50.866684
2023-05-13T02:44:58.948Z,50.866707
2023-05-13T02:45:58.991Z,50.866684
2023-05-13T02:46:58.949Z,50.866703
2023-05-13T02:47:58.968Z,50.866703
2023-05-13T02:48:58.937Z,50.866749
2023-05-13T02:49:58.925Z,50.866745
2023-05-13T02:50:58.904Z,50.866787
2023-05-13T02:51:58.882Z,50.866791
2023-05-13T02:52:58.898Z,50.866814
2023-05-13T02:53:58.876Z,50.866798
2023-05-13T02:54:58.898Z,50.866753
2023-05-13T02:55:58.844Z,50.866741
2023-05-13T02:56:58.844Z,50.866745
2023-05-13T02:57:58.849Z,50.866737
2023-05-13T02:58:58.843Z,50.866776
2023-05-13T02:59:58.831Z,50.866764
2023-05-13T03:00:58.880Z,50.866783
2023-05-13T03:01:58.814Z,50.866741
2023-05-13T03:02:58.992Z,50.866734
2023-05-13T03:03:58.783Z,50.866737
2023-05-13T03:04:58.790Z,50.866787
2023-05-13T03:05:58.795Z,50.866787
2023-05-13T03:06:58.768Z,50.866722
2023-05-13T03:07:58.751Z,50.866749
2023-05-13T03:08:58.784Z,50.866734
2023-05-13T03:09:58.752Z,50.866806
2023-05-13T03:10:58.749Z,50.866772
2023-05-13T03:11:58.748Z,50.866756
2023-05-13T03:12:58.746Z,50.866745
2023-05-13T03:13:58.715Z,50.866768
2023-05-13T03:14:58.696Z,50.866764
2023-05-13T03:15:58.750Z,50.866753
2023-05-13T03:16:58.680Z,50.866791
2023-05-13T03:17:58.741Z,50.866772
2023-05-13T03:18:58.704Z,50.866749
2023-05-13T03:19:58.683Z,50.866776
2023-05-13T03:20:58.660Z,50.866776
2023-05-13T03:21:58.634Z,50.866764
2023-05-13T03:22:58.644Z,50.866753
2023-05-13T03:23:58.650Z,50.866753
2023-05-13T03:24:58.662Z,50.866787
2023-05-13T03:25:58.618Z,50.866791
2023-05-13T03:26:58.630Z,50.866776
2023-05-13T03:27:59.345Z,50.866795
2023-05-13T03:28:58.601Z,50.866734
2023-05-13T03:29:58.580Z,50.866783
2023-05-13T03:30:58.589Z,50.866753
2023-05-13T03:31:59.449Z,50.866741
2023-05-13T03:32:58.602Z,50.866737
2023-05-13T03:33:58.570Z,50.866749
2023-05-13T03:34:58.545Z,50.866768
2023-05-13T03:35:58.526Z,50.866760
2023-05-13T03:36:58.533Z,50.866756
2023-05-13T03:37:58.529Z,50.866734
2023-05-13T03:38:58.500Z,50.866791
2023-05-13T03:39:58.509Z,50.866787
2023-05-13T03:40:58.483Z,50.866825
2023-05-13T03:41:59.477Z,50.866798
2023-05-13T03:42:58.501Z,50.866787
2023-05-13T03:43:58.482Z,50.866787
2023-05-13T03:45:01.428Z,50.866787
2023-05-13T03:45:58.441Z,50.866787
2023-05-13T03:46:58.533Z,50.866776
2023-05-13T03:47:58.474Z,50.866791
2023-05-13T03:48:58.459Z,50.866814
2023-05-13T03:49:58.426Z,50.866848
2023-05-13T03:50:58.434Z,50.866825
2023-05-13T03:51:58.408Z,50.866875
2023-05-13T03:52:58.388Z,50.866856
2023-05-13T03:53:58.384Z,50.866871
2023-05-13T03:54:58.393Z,50.866863
2023-05-13T03:55:58.396Z,50.866840
2023-05-13T03:56:58.403Z,50.866829
2023-05-13T03:57:58.355Z,50.866806
2023-05-13T03:58:59.351Z,50.866852
2023-05-13T03:59:58.343Z,50.866875
2023-05-13T04:00:58.943Z,50.866886
2023-05-13T04:01:58.392Z,50.866882
2023-05-13T04:02:58.455Z,50.866879
2023-05-13T04:03:58.353Z,50.866879
2023-05-13T04:04:58.398Z,50.866879
2023-05-13T04:05:58.302Z,50.866840
2023-05-13T04:06:58.291Z,50.866837
2023-05-13T04:07:58.300Z,50.866798
2023-05-13T04:08:58.360Z,50.866821
2023-05-13T04:09:58.284Z,50.866825
2023-05-13T04:10:58.294Z,50.866844
2023-05-13T04:11:58.242Z,50.866821
2023-05-13T04:12:58.252Z,50.866829
2023-05-13T04:13:58.318Z,50.866814
2023-05-13T04:14:58.221Z,50.866825
2023-05-13T04:15:58.863Z,50.866821
2023-05-13T04:16:59.309Z,50.866829
2023-05-13T04:17:58.268Z,50.866852
2023-05-13T04:19:00.009Z,50.866825
2023-05-13T04:19:58.193Z,50.866829
2023-05-13T04:20:58.203Z,50.866848
2023-05-13T04:21:58.174Z,50.866848
2023-05-13T04:22:58.194Z,50.866867
2023-05-13T04:23:58.194Z,50.866825
2023-05-13T04:24:58.161Z,50.866825
2023-05-13T04:25:58.164Z,50.866894
2023-05-13T04:26:58.985Z,50.866890
2023-05-13T04:27:58.131Z,50.866894
2023-05-13T04:28:58.129Z,50.866879
2023-05-13T04:29:58.116Z,50.866875
2023-05-13T04:30:58.113Z,50.866917
2023-05-13T04:31:58.180Z,50.866920
2023-05-13T04:32:58.140Z,50.866852
2023-05-13T04:33:58.076Z,50.866871
2023-05-13T04:34:58.081Z,50.866970
2023-05-13T04:35:58.072Z,50.866940
2023-05-13T04:36:58.076Z,50.866840
2023-05-13T04:37:58.071Z,50.866821
2023-05-13T04:38:58.059Z,50.866814
2023-05-13T04:39:58.038Z,50.866894
2023-05-13T04:40:58.024Z,50.866817
2023-05-13T04:41:58.026Z,50.866817
2023-05-13T04:43:16.944Z,50.866798
2023-05-13T04:43:58.014Z,50.866817
2023-05-13T04:44:58.006Z,50.866783
2023-05-13T04:45:58.067Z,50.866772
2023-05-13T04:46:57.990Z,50.866756
2023-05-13T04:47:58.732Z,50.866776
2023-05-13T04:48:58.991Z,50.866795
2023-05-13T04:49:57.965Z,50.866695
2023-05-13T04:50:57.975Z,50.866749
2023-05-13T04:51:57.940Z,50.866737
2023-05-13T04:52:57.942Z,50.866611
2023-05-13T04:53:57.952Z,50.866676
2023-05-13T04:54:57.930Z,50.866642
2023-05-13T04:55:57.907Z,50.866692
2023-05-13T04:56:58.898Z,50.866695
2023-05-13T04:57:57.903Z,50.866653
2023-05-13T04:58:59.466Z,50.866631
2023-05-13T04:59:57.893Z,50.866589
2023-05-13T05:00:57.896Z,50.866619
2023-05-13T05:01:57.927Z,50.866680
2023-05-13T05:02:57.876Z,50.866714
2023-05-13T05:03:57.964Z,50.866707
2023-05-13T05:04:57.880Z,50.866688
2023-05-13T05:05:59.372Z,50.866703
2023-05-13T05:06:57.844Z,50.866730
2023-05-13T05:07:57.835Z,50.866707
2023-05-13T05:08:57.850Z,50.866688
2023-05-13T05:09:57.796Z,50.866692
2023-05-13T05:10:57.809Z,50.866714
2023-05-13T05:11:57.790Z,50.866699
2023-05-13T05:12:57.794Z,50.866680
2023-05-13T05:13:57.777Z,50.866692
2023-05-13T05:14:58.471Z,50.866714
2023-05-13T05:15:57.764Z,50.866703
2023-05-13T05:16:57.802Z,50.866699
2023-05-13T05:17:58.085Z,50.866718
2023-05-13T05:18:57.834Z,50.866722
2023-05-13T05:19:57.733Z,50.866699
2023-05-13T05:20:58.879Z,50.866695
2023-05-13T05:21:57.721Z,50.866707
2023-05-13T05:22:57.737Z,50.866688
2023-05-13T05:23:57.703Z,50.866695
2023-05-13T05:24:57.679Z,50.866734
2023-05-13T05:26:07.934Z,50.866760
2023-05-13T05:26:59.672Z,50.866734
2023-05-13T05:27:57.668Z,50.866737
2023-05-13T05:28:57.665Z,50.866730
2023-05-13T05:29:57.672Z,50.866711
2023-05-13T05:30:57.644Z,50.866745
2023-05-13T05:31:57.848Z,50.866745
2023-05-13T05:32:57.716Z,50.866730
2023-05-13T05:33:57.625Z,50.866730
2023-05-13T05:34:57.603Z,50.866722
2023-05-13T05:35:57.606Z,50.866734
2023-05-13T05:36:57.595Z,50.866783
2023-05-13T05:37:57.587Z,50.866749
2023-05-13T05:38:57.580Z,50.866737
2023-05-13T05:39:57.562Z,50.866749
2023-05-13T05:40:57.566Z,50.866745
2023-05-13T05:41:57.541Z,50.866764
2023-05-13T05:42:57.547Z,50.866791
2023-05-13T05:43:57.558Z,50.866772
2023-05-13T05:44:57.537Z,50.866825
2023-05-13T05:45:57.523Z,50.866776
2023-05-13T05:46:57.522Z,50.866760
2023-05-13T05:48:00.650Z,50.866711
2023-05-13T05:48:57.499Z,50.866787
2023-05-13T05:49:57.512Z,50.866734
2023-05-13T05:50:57.491Z,50.866714
2023-05-13T05:51:57.480Z,50.866787
2023-05-13T05:52:57.469Z,50.866734
2023-05-13T05:53:57.492Z,50.866680
2023-05-13T05:54:57.449Z,50.866737
2023-05-13T05:55:57.442Z,50.866779
2023-05-13T05:56:57.434Z,50.866779
2023-05-13T05:57:57.438Z,50.866791
2023-05-13T05:58:57.484Z,50.866791
2023-05-13T05:59:57.399Z,50.866795
2023-05-13T06:00:58.419Z,50.866741
2023-05-13T06:01:57.430Z,50.866764
2023-05-13T06:02:57.487Z,50.866795
2023-05-13T06:03:57.428Z,50.866783
2023-05-13T06:04:58.037Z,50.866776
2023-05-13T06:05:57.439Z,50.866711
2023-05-13T06:06:57.380Z,50.866714
2023-05-13T06:07:57.889Z,50.866695
2023-05-13T06:08:57.338Z,50.866680
2023-05-13T06:09:57.337Z,50.866680
2023-05-13T06:10:57.316Z,50.866749
2023-05-13T06:11:57.303Z,50.866741
2023-05-13T06:12:57.328Z,50.866722
2023-05-13T06:13:57.316Z,50.866726
2023-05-13T06:14:57.282Z,50.866703
2023-05-13T06:15:57.352Z,50.866730
2023-05-13T06:16:57.276Z,50.866745
2023-05-13T06:17:57.345Z,50.866730
2023-05-13T06:18:58.009Z,50.866734
2023-05-13T06:19:57.278Z,50.866726
2023-05-13T06:20:57.253Z,50.866718
2023-05-13T06:21:58.975Z,50.866734
2023-05-13T06:22:58.972Z,50.866703
2023-05-13T06:23:57.221Z,50.866699
2023-05-13T06:24:57.210Z,50.866692
2023-05-13T06:25:57.215Z,50.866711
2023-05-13T06:26:57.217Z,50.866760
2023-05-13T06:27:57.196Z,50.866760
2023-05-13T06:28:57.176Z,50.866764
2023-05-13T06:29:57.166Z,50.866779
2023-05-13T06:30:57.211Z,50.866756
2023-05-13T06:31:57.172Z,50.866745
2023-05-13T06:33:02.117Z,50.866726
2023-05-13T06:33:58.151Z,50.866695
2023-05-13T06:34:57.520Z,50.866688
2023-05-13T06:35:57.140Z,50.866734
2023-05-13T06:36:57.125Z,50.866756
2023-05-13T06:37:57.109Z,50.866791
2023-05-13T06:38:57.104Z,50.866795
2023-05-13T06:39:57.110Z,50.866714
2023-05-13T06:40:57.135Z,50.866703
2023-05-13T06:41:57.084Z,50.866718
2023-05-13T06:42:57.073Z,50.866764
2023-05-13T06:43:57.061Z,50.866734
2023-05-13T06:44:57.059Z,50.866768
2023-05-13T06:45:58.906Z,50.866856
2023-05-13T06:46:57.084Z,50.866901
2023-05-13T06:47:57.058Z,50.866840
2023-05-13T06:48:57.049Z,50.866791
2023-05-13T06:49:57.055Z,50.866768
2023-05-13T06:50:57.030Z,50.866760
2023-05-13T06:51:57.011Z,50.866756
2023-05-13T06:52:58.002Z,50.866669
2023-05-13T06:53:56.989Z,50.866711
2023-05-13T06:54:56.987Z,50.866741
2023-05-13T06:55:56.967Z,50.866699
2023-05-13T06:56:56.999Z,50.866692
2023-05-13T06:57:56.977Z,50.866688
2023-05-13T06:58:56.965Z,50.866699
2023-05-13T06:59:57.922Z,50.866695
2023-05-13T07:00:56.973Z,50.866730
2023-05-13T07:01:56.933Z,50.866718
2023-05-13T07:02:56.976Z,50.866711
2023-05-13T07:03:56.950Z,50.866711
2023-05-13T07:04:58.486Z,50.866688
2023-05-13T07:05:56.879Z,50.866665
2023-05-13T07:06:56.889Z,50.866745
2023-05-13T07:07:56.869Z,50.866722
2023-05-13T07:08:56.883Z,50.866711
2023-05-13T07:09:56.898Z,50.866692
2023-05-13T07:10:56.857Z,50.866714
2023-05-13T07:11:56.841Z,50.866730
2023-05-13T07:12:56.822Z,50.866707
2023-05-13T07:13:56.828Z,50.866718
2023-05-13T07:14:56.816Z,50.866741
2023-05-13T07:15:56.793Z,50.866734
2023-05-13T07:16:56.884Z,50.866741
2023-05-13T07:17:56.877Z,50.866734
2023-05-13T07:18:56.827Z,50.866711
2023-05-13T07:19:56.807Z,50.866692
2023-05-13T07:20:56.771Z,50.866669
2023-05-13T07:21:56.761Z,50.866653
2023-05-13T07:22:56.752Z,50.866703
2023-05-13T07:23:57.417Z,50.866722
2023-05-13T07:24:56.739Z,50.866756
2023-05-13T07:25:56.722Z,50.866714
2023-05-13T07:26:56.702Z,50.866741
2023-05-13T07:27:56.710Z,50.866711
2023-05-13T07:28:56.720Z,50.866684
2023-05-13T07:29:57.509Z,50.866699
2023-05-13T07:30:56.734Z,50.866737
2023-05-13T07:31:57.522Z,50.866737
2023-05-13T07:32:56.756Z,50.866722
2023-05-13T07:33:56.656Z,50.866753
2023-05-13T07:34:56.651Z,50.866779
2023-05-13T07:35:56.627Z,50.866726
2023-05-13T07:36:56.632Z,50.866756
2023-05-13T07:37:56.615Z,50.866745
2023-05-13T07:38:56.617Z,50.866768
2023-05-13T07:39:56.632Z,50.866768
2023-05-13T07:40:56.608Z,50.866734
2023-05-13T07:41:56.605Z,50.866714
2023-05-13T07:42:56.578Z,50.866707
2023-05-13T07:43:56.576Z,50.866688
2023-05-13T07:44:56.604Z,50.866707
2023-05-13T07:45:56.572Z,50.866669
2023-05-13T07:46:56.633Z,50.866714
2023-05-13T07:47:56.608Z,50.866737
2023-05-13T07:48:56.566Z,50.866730
2023-05-13T07:49:56.587Z,50.866730
2023-05-13T07:50:56.536Z,50.866749
2023-05-13T07:51:56.532Z,50.866760
2023-05-13T07:52:56.532Z,50.866749
2023-05-13T07:53:56.509Z,50.866760
2023-05-13T07:54:56.523Z,50.866756
2023-05-13T07:55:57.448Z,50.866829
2023-05-13T07:56:56.475Z,50.866814
2023-05-13T07:57:57.032Z,50.866791
2023-05-13T07:58:56.473Z,50.866718
2023-05-13T07:59:56.478Z,50.866657
2023-05-13T08:00:56.469Z,50.866325
2023-05-13T08:01:56.456Z,50.866180
2023-05-13T08:02:56.591Z,50.866325
2023-05-13T08:03:56.746Z,50.866425
2023-05-13T08:04:56.484Z,50.866425
2023-05-13T08:05:56.427Z,50.866444
2023-05-13T08:06:57.422Z,50.866322
2023-05-13T08:07:56.401Z,50.866329
2023-05-13T08:08:56.384Z,50.866375
2023-05-13T08:09:56.379Z,50.866390
2023-05-13T08:10:56.381Z,50.866470
2023-05-13T08:11:56.388Z,50.866615
2023-05-13T08:12:56.357Z,50.866737
2023-05-13T08:13:56.365Z,50.866814
2023-05-13T08:14:56.345Z,50.866764
2023-05-13T08:15:56.419Z,50.866756
2023-05-13T08:16:56.377Z,50.866665
2023-05-13T08:17:56.411Z,50.866615
2023-05-13T08:18:56.339Z,50.866665
2023-05-13T08:19:57.327Z,50.866638
2023-05-13T08:20:56.319Z,50.866688
2023-05-13T08:21:56.309Z,50.866718
2023-05-13T08:22:56.348Z,50.866718
2023-05-13T08:23:56.265Z,50.866749
2023-05-13T08:24:56.255Z,50.866776
2023-05-13T08:25:56.262Z,50.866798
2023-05-13T08:26:56.271Z,50.866802
2023-05-13T08:27:56.961Z,50.866772
2023-05-13T08:28:56.252Z,50.866756
2023-05-13T08:29:56.240Z,50.866711
2023-05-13T08:30:57.056Z,50.866734
2023-05-13T08:31:56.275Z,50.866779
2023-05-13T08:32:57.077Z,50.866749
2023-05-13T08:33:56.940Z,50.866756
2023-05-13T08:34:56.193Z,50.866726
2023-05-13T08:35:56.198Z,50.866749
2023-05-13T08:36:56.185Z,50.866760
2023-05-13T08:37:56.181Z,50.866711
2023-05-13T08:38:56.449Z,50.866844
2023-05-13T08:39:56.150Z,50.866901
2023-05-13T08:40:56.211Z,50.866940
2023-05-13T08:41:56.158Z,50.866856
2023-05-13T08:42:56.140Z,50.866798
2023-05-13T08:43:57.961Z,50.866787
2023-05-13T08:44:56.122Z,50.866760
2023-05-13T08:45:56.152Z,50.866707
2023-05-13T08:46:56.090Z,50.866707
2023-05-13T08:47:56.116Z,50.866688
2023-05-13T08:48:56.114Z,50.866779
2023-05-13T08:49:56.082Z,50.866776
2023-05-13T08:50:56.061Z,50.866764
2023-05-13T08:51:57.079Z,50.866714
2023-05-13T08:52:56.086Z,50.866737
2023-05-13T08:53:56.025Z,50.866741
2023-05-13T08:54:58.554Z,50.866707
2023-05-13T08:55:56.023Z,50.866756
2023-05-13T08:56:56.034Z,50.866734
2023-05-13T08:57:57.981Z,50.866714
2023-05-13T08:58:56.064Z,50.866745
2023-05-13T08:59:55.989Z,50.866749
2023-05-13T09:00:57.014Z,50.866791
2023-05-13T09:01:55.999Z,50.866749
2023-05-13T09:02:56.070Z,50.866718
2023-05-13T09:03:55.969Z,50.866768
2023-05-13T09:04:56.165Z,50.866749
2023-05-13T09:05:55.955Z,50.866711
2023-05-13T09:06:55.960Z,50.866688
2023-05-13T09:07:55.931Z,50.866680
2023-05-13T09:08:55.930Z,50.866680
2023-05-13T09:09:55.918Z,50.866680
2023-05-13T09:10:55.932Z,50.866661
2023-05-13T09:11:55.929Z,50.866653
2023-05-13T09:12:55.897Z,50.866711
2023-05-13T09:13:55.897Z,50.866722
2023-05-13T09:14:55.905Z,50.866699
2023-05-13T09:15:55.916Z,50.866741
2023-05-13T09:16:55.855Z,50.866711
2023-05-13T09:17:55.893Z,50.866673
2023-05-13T09:18:56.008Z,50.866646
2023-05-13T09:19:56.626Z,50.866642
2023-05-13T09:20:55.918Z,50.866680
2023-05-13T09:21:55.830Z,50.866714
2023-05-13T09:22:55.833Z,50.866535
2023-05-13T09:23:55.819Z,50.866653
2023-05-13T09:24:55.828Z,50.866570
2023-05-13T09:25:56.552Z,50.866116
2023-05-13T09:26:56.461Z,50.866257
2023-05-13T09:27:55.812Z,50.866318
2023-05-13T09:28:57.548Z,50.866344
2023-05-13T09:29:55.760Z,50.866356
2023-05-13T09:30:55.860Z,50.866566
2023-05-13T09:31:55.771Z,50.866619
2023-05-13T09:32:55.773Z,50.866638
2023-05-13T09:33:55.760Z,50.866699
2023-05-13T09:34:55.807Z,50.866711
2023-05-13T09:35:56.482Z,50.866657
2023-05-13T09:36:55.734Z,50.866703
2023-05-13T09:37:56.560Z,50.866642
2023-05-13T09:38:55.703Z,50.866673
2023-05-13T09:39:55.690Z,50.866711
2023-05-13T09:40:55.901Z,50.866665
2023-05-13T09:41:55.706Z,50.866703
2023-05-13T09:42:55.722Z,50.866699
2023-05-13T09:43:55.730Z,50.866776
2023-05-13T09:44:55.670Z,50.866749
2023-05-13T09:45:55.665Z,50.866741
2023-05-13T09:46:55.666Z,50.866760
2023-05-13T09:47:55.707Z,50.866600
2023-05-13T09:48:57.070Z,50.866703
2023-05-13T09:49:56.623Z,50.866741
2023-05-13T09:50:57.570Z,50.866684
2023-05-13T09:51:56.613Z,50.866592
2023-05-13T09:52:55.597Z,50.866676
2023-05-13T09:53:55.589Z,50.866852
2023-05-13T09:54:55.550Z,50.866749
2023-05-13T09:59:45.069Z,50.866520
2023-05-13T10:00:45.382Z,50.866623
2023-05-13T10:01:45.161Z,50.866795
2023-05-13T10:02:45.105Z,50.866737
2023-05-13T10:03:45.103Z,50.866817
2023-05-13T10:04:45.084Z,50.866798
2023-05-13T10:05:45.009Z,50.866581
2023-05-13T10:06:45.003Z,50.866737
2023-05-13T10:07:45.041Z,50.866673
2023-05-13T10:08:44.998Z,50.866673
2023-05-13T10:09:45.046Z,50.866589
2023-05-13T10:10:47.882Z,50.866611
2023-05-13T10:11:45.969Z,50.866470
2023-05-13T10:12:44.997Z,50.866600
2023-05-13T10:13:44.983Z,50.866364
2023-05-13T10:14:44.979Z,50.866646
2023-05-13T10:15:44.938Z,50.866615
2023-05-13T10:16:44.962Z,50.866611
2023-05-13T10:17:44.980Z,50.866783
2023-05-13T10:18:46.023Z,50.866676
2023-05-13T10:19:45.914Z,50.866890
2023-05-13T10:20:44.930Z,50.866604
2023-05-13T10:21:44.902Z,50.866611
2023-05-13T10:22:44.971Z,50.866737
2023-05-13T10:23:44.936Z,50.866592
2023-05-13T10:24:44.868Z,50.866657
2023-05-13T10:25:44.981Z,50.866741
2023-05-13T10:26:46.366Z,50.866642
2023-05-13T10:27:44.881Z,50.866634
2023-05-13T10:28:46.446Z,50.866531
2023-05-13T10:29:44.842Z,50.866505
2023-05-13T10:30:44.851Z,50.866623
2023-05-13T10:31:44.858Z,50.866581
2023-05-13T10:32:44.864Z,50.866619
2023-05-13T10:33:44.801Z,50.866673
2023-05-13T10:34:44.777Z,50.866566
2023-05-13T10:35:44.787Z,50.866566
2023-05-13T10:36:44.825Z,50.866554
2023-05-13T10:37:44.802Z,50.866646
2023-05-13T10:38:44.769Z,50.866451
2023-05-13T10:39:44.758Z,50.866528
2023-05-13T10:40:44.741Z,50.866711
2023-05-13T10:41:44.719Z,50.866848
2023-05-13T10:42:44.742Z,50.866714
2023-05-13T10:43:44.728Z,50.866959
2023-05-13T10:44:44.711Z,50.866920
2023-05-13T10:45:44.719Z,50.867062
2023-05-13T10:46:44.797Z,50.866982
2023-05-13T10:47:44.775Z,50.866879
2023-05-13T10:48:44.712Z,50.866867
2023-05-13T10:49:44.670Z,50.866817
2023-05-13T10:50:44.740Z,50.867176
2023-05-13T10:51:44.679Z,50.867294
2023-05-13T10:52:44.654Z,50.867020
2023-05-13T10:53:44.651Z,50.867126
2023-05-13T10:54:45.359Z,50.867119
2023-05-13T10:55:44.614Z,50.867046
2023-05-13T10:56:44.618Z,50.866909
2023-05-13T10:57:46.378Z,50.866951
2023-05-13T10:58:44.643Z,50.866966
2023-05-13T10:59:44.596Z,50.867050
2023-05-13T11:00:44.579Z,50.866951
2023-05-13T11:01:45.489Z,50.867016
2023-05-13T11:02:46.567Z,50.866978
2023-05-13T11:03:44.633Z,50.866920
2023-05-13T11:04:44.552Z,50.867035
2023-05-13T11:05:46.317Z,50.866947
2023-05-13T11:06:44.569Z,50.866890
2023-05-13T11:07:44.548Z,50.866882
2023-05-13T11:08:44.521Z,50.866966
2023-05-13T11:09:44.552Z,50.866974
2023-05-13T11:10:44.536Z,50.866837
2023-05-13T11:11:47.377Z,50.866848
2023-05-13T11:12:44.551Z,50.866871
2023-05-13T11:13:44.528Z,50.866890
2023-05-13T11:14:44.488Z,50.866928
2023-05-13T11:15:44.536Z,50.866947
2023-05-13T11:16:44.647Z,50.866879
2023-05-13T11:17:46.423Z,50.866928
2023-05-13T11:18:44.490Z,50.866783
2023-05-13T11:19:44.453Z,50.866745
2023-05-13T11:20:52.137Z,50.866718
2023-05-13T11:21:46.459Z,50.866722
2023-05-13T11:22:44.417Z,50.866734
2023-05-13T11:23:44.435Z,50.866726
2023-05-13T11:24:44.404Z,50.866718
2023-05-13T11:25:44.411Z,50.866703
2023-05-13T11:26:44.384Z,50.866711
2023-05-13T11:27:46.991Z,50.866734
2023-05-13T11:28:44.380Z,50.866734
2023-05-13T11:29:44.393Z,50.866722
2023-05-13T11:30:45.366Z,50.866714